Time;durP1;ratioP1;P1;durP2;ratioP2;P2;SDS_P1;SDS_P2;PMS_P1;PMS_P2;Temp;Humidity;BMP_temperature;BMP_pressure;BME280_temperature;BME280_humidity;BME280_pressure;Samples;Min_cycle;Max_cycle;Signal;HPM_P1;HPM_P2
2021/07/10 00:01:16;;;;;;;;;16.00;14.25;;;;;23.03;47.05;101341.81;5079651;27;45468;-51
2021/07/10 00:03:42;;;;;;;;;15.00;14.00;;;;;23.03;47.91;101330.97;5044624;28;45935;-50
2021/07/10 00:06:08;;;;;;;;;13.25;11.50;;;;;23.02;47.55;101334.66;5079026;27;47333;-50
2021/07/10 00:08:33;;;;;;;;;13.00;11.75;;;;;23.02;47.10;101331.97;5078878;27;45580;-48
2021/07/10 00:10:59;;;;;;;;;14.25;12.50;;;;;22.99;47.35;101330.28;5061130;28;45343;-49
2021/07/10 00:13:24;;;;;;;;;11.75;11.50;;;;;22.99;47.79;101319.47;5079685;27;45317;-51
2021/07/10 00:15:50;;;;;;;;;11.25;11.25;;;;;23.01;47.35;101319.38;5079139;27;48436;-47
2021/07/10 00:18:16;;;;;;;;;11.50;10.75;;;;;22.99;47.49;101322.16;5079374;27;45663;-48
2021/07/10 00:20:42;;;;;;;;;11.75;11.75;;;;;23.00;47.80;101326.66;5078897;27;45228;-50
2021/07/10 00:23:08;;;;;;;;;11.25;10.50;;;;;23.00;47.69;101326.66;5079293;27;45264;-50
2021/07/10 00:25:34;;;;;;;;;10.25;10.25;;;;;23.00;47.58;101325.78;5078906;27;47395;-51
2021/07/10 00:27:59;;;;;;;;;10.25;10.25;;;;;22.99;47.78;101315.88;5060922;28;45366;-51
2021/07/10 00:30:25;;;;;;;;;16.50;14.25;;;;;23.00;47.33;101312.25;5062594;27;45465;-51
2021/07/10 00:32:51;;;;;;;;;9.00;8.75;;;;;22.99;47.67;101305.06;5077913;27;45610;-49
2021/07/10 00:35:17;;;;;;;;;11.75;10.50;;;;;22.98;47.41;101308.72;5060505;28;46242;-51
2021/07/10 00:37:43;;;;;;;;;12.00;10.50;;;;;22.96;47.44;101303.44;5077585;27;46068;-48
2021/07/10 00:40:10;;;;;;;;;15.25;13.25;;;;;22.95;47.62;101296.28;5079086;27;45303;-51
2021/07/10 00:42:37;;;;;;;;;12.25;11.75;;;;;22.93;47.67;101298.22;5055271;28;45539;-48
2021/07/10 00:45:05;;;;;;;;;11.25;11.25;;;;;22.93;47.98;101297.34;5073446;27;47095;-50
2021/07/10 00:47:31;;;;;;;;;10.25;10.25;;;;;22.91;47.79;101286.63;5060737;28;45344;-52
2021/07/10 00:49:56;;;;;;;;;10.75;10.75;;;;;22.88;47.97;101287.69;5078812;27;45481;-51
2021/07/10 00:52:22;;;;;;;;;11.75;11.75;;;;;22.87;48.05;101288.66;5061126;28;45479;-49
2021/07/10 00:54:48;;;;;;;;;13.75;13.50;;;;;22.86;47.81;101283.31;5060475;27;45500;-50
2021/07/10 00:57:15;;;;;;;;;12.00;10.75;;;;;22.86;47.85;101286.03;5078880;27;45416;-48
2021/07/10 00:59:41;;;;;;;;;9.50;9.50;;;;;22.84;47.75;101282.56;5078991;27;45375;-52
2021/07/10 01:02:08;;;;;;;;;10.75;10.00;;;;;22.82;48.03;101274.50;5060563;28;45504;-52
2021/07/10 01:04:33;;;;;;;;;15.00;13.50;;;;;22.82;48.53;101271.81;5059978;28;47316;-51
2021/07/10 01:06:59;;;;;;;;;11.00;11.00;;;;;22.83;48.47;101267.28;5050029;28;45917;-50
2021/07/10 01:09:25;;;;;;;;;9.75;9.75;;;;;22.83;48.25;101272.69;5078687;28;45664;-49
2021/07/10 01:11:51;;;;;;;;;14.00;12.75;;;;;22.83;48.15;101275.41;5078953;27;45329;-50
2021/07/10 01:14:19;;;;;;;;;10.25;10.25;;;;;22.84;48.00;101271.72;5060238;28;47164;-50
2021/07/10 01:16:44;;;;;;;;;11.00;11.00;;;;;22.85;47.83;101258.09;5078290;28;45422;-50
2021/07/10 01:19:09;;;;;;;;;10.75;10.75;;;;;22.86;48.30;101257.13;5078310;27;45340;-53
2021/07/10 01:21:35;;;;;;;;;11.00;11.00;;;;;22.89;48.22;101250.66;5079102;28;45394;-51
2021/07/10 01:24:01;;;;;;;;;10.75;10.75;;;;;22.88;48.27;101244.41;5078374;27;45870;-50
2021/07/10 01:26:26;;;;;;;;;10.75;10.75;;;;;22.89;48.34;101243.41;5078370;28;45619;-48
2021/07/10 01:28:51;;;;;;;;;11.00;11.00;;;;;22.89;48.03;101235.31;5079655;27;45378;-48
2021/07/10 01:31:18;;;;;;;;;11.00;11.00;;;;;22.91;48.14;101235.19;5079054;27;45311;-48
2021/07/10 01:33:43;;;;;;;;;14.00;12.75;;;;;22.89;48.20;101224.47;5078713;27;47382;-49
2021/07/10 01:36:09;;;;;;;;;10.25;10.25;;;;;22.92;48.19;101228.81;5077789;27;45228;-46
2021/07/10 01:38:34;;;;;;;;;11.00;11.00;;;;;22.93;48.49;101226.97;5077788;28;45452;-50
2021/07/10 01:41:00;;;;;;;;;9.25;8.00;;;;;22.93;48.17;101219.72;5060385;28;45337;-46
2021/07/10 01:43:26;;;;;;;;;11.50;11.50;;;;;22.93;48.23;101217.00;5078218;27;47142;-50
2021/07/10 01:45:51;;;;;;;;;11.00;11.00;;;;;22.93;48.27;101208.03;5077763;27;45387;-50
2021/07/10 01:48:17;;;;;;;;;10.25;10.25;;;;;22.93;48.24;101208.91;5059936;28;45307;-47
2021/07/10 01:50:47;;;;;;;;;11.75;11.00;;;;;22.92;48.25;101199.03;5059807;28;45482;-49
2021/07/10 01:53:13;;;;;;;;;11.75;10.50;;;;;22.90;48.27;101188.31;5077999;27;46417;-48
2021/07/10 01:55:39;;;;;;;;;9.75;8.00;;;;;22.91;48.10;101189.19;5079305;27;45561;-48
2021/07/10 01:58:05;;;;;;;;;12.75;12.75;;;;;22.91;48.45;101191.91;5081645;27;45707;-50
2021/07/10 02:00:40;;;;;;;;;11.00;11.00;;;;;22.92;48.17;101185.50;5067555;28;45327;-51
2021/07/10 02:03:05;;;;;;;;;10.25;9.25;;;;;22.92;48.31;101185.50;5081258;27;47600;-47
2021/07/10 02:05:31;;;;;;;;;11.50;10.25;;;;;22.92;48.35;101187.34;5081049;27;45251;-50
2021/07/10 02:07:59;;;;;;;;;12.75;12.75;;;;;22.91;48.26;101181.06;5063258;27;45746;-49
2021/07/10 02:10:28;;;;;;;;;11.00;10.00;;;;;22.89;48.42;101183.00;5081615;27;45398;-48
2021/07/10 02:12:56;;;;;;;;;9.50;9.50;;;;;22.90;48.53;101177.50;5080982;27;47064;-52
2021/07/10 02:15:23;;;;;;;;;8.50;8.50;;;;;22.91;48.49;101172.94;5063024;28;45687;-49
2021/07/10 02:17:49;;;;;;;;;8.25;8.25;;;;;22.90;48.24;101169.38;5081292;27;45480;-49
2021/07/10 02:20:21;;;;;;;;;10.00;10.00;;;;;22.88;47.91;101167.75;5059571;28;45334;-47
2021/07/10 02:22:47;;;;;;;;;11.00;10.00;;;;;22.87;48.31;101163.31;5077711;27;47060;-47
2021/07/10 02:25:15;;;;;;;;;9.75;8.00;;;;;22.85;48.01;101166.09;5081179;27;45369;-47
2021/07/10 02:27:42;;;;;;;;;10.50;9.50;;;;;22.83;48.27;101170.72;5081236;27;45313;-47
2021/07/10 02:30:11;;;;;;;;;9.00;9.00;;;;;22.83;47.91;101172.56;5086102;27;45833;-48
2021/07/10 02:32:37;;;;;;;;;9.00;9.00;;;;;22.81;48.49;101167.22;5062287;27;47782;-49
2021/07/10 02:35:08;;;;;;;;;9.75;9.75;;;;;22.80;48.11;101172.75;5080877;27;45751;-49
2021/07/10 02:37:33;;;;;;;;;10.00;9.25;;;;;22.78;48.59;101163.88;5080060;27;45268;-47
2021/07/10 02:39:59;;;;;;;;;7.75;7.75;;;;;22.78;48.76;101164.72;5081181;27;45313;-49
2021/07/10 02:42:24;;;;;;;;;10.00;9.00;;;;;22.78;48.27;101153.03;5080958;27;46883;-51
2021/07/10 02:44:50;;;;;;;;;9.25;8.75;;;;;22.78;48.48;101155.75;5080095;27;45360;-46
2021/07/10 02:47:16;;;;;;;;;9.75;9.75;;;;;22.77;48.51;101154.88;5080952;27;45342;-49
2021/07/10 02:49:41;;;;;;;;;9.25;9.25;;;;;22.77;48.14;101154.88;5080946;27;45516;-47
2021/07/10 02:52:08;;;;;;;;;12.50;10.75;;;;;22.79;48.11;101149.38;5080791;27;45636;-48
2021/07/10 02:54:36;;;;;;;;;8.25;8.25;;;;;22.77;48.10;101149.47;5080321;27;45378;-49
2021/07/10 02:57:03;;;;;;;;;9.50;9.50;;;;;22.77;48.30;101149.47;5062639;28;45521;-46
2021/07/10 02:59:28;;;;;;;;;9.50;8.75;;;;;22.75;48.50;101151.41;5060948;27;45433;-49
2021/07/10 03:01:54;;;;;;;;;9.25;9.25;;;;;22.74;48.61;101146.97;5080189;27;47394;-49
2021/07/10 03:04:19;;;;;;;;;9.00;8.00;;;;;22.73;48.65;101141.63;5080661;27;45484;-49
2021/07/10 03:06:45;;;;;;;;;10.00;10.00;;;;;22.71;48.36;101143.56;5080102;27;45358;-50
2021/07/10 03:09:10;;;;;;;;;10.25;9.75;;;;;22.68;48.86;101132.97;5080571;27;45934;-48
2021/07/10 03:11:36;;;;;;;;;9.75;9.75;;;;;22.66;48.82;101126.78;5080389;27;46972;-48
2021/07/10 03:14:02;;;;;;;;;9.00;8.00;;;;;22.61;48.92;101118.97;5080513;27;46093;-48
2021/07/10 03:16:28;;;;;;;;;8.50;8.50;;;;;22.58;48.91;101120.03;5080344;27;45497;-47
2021/07/10 03:18:53;;;;;;;;;12.25;10.50;;;;;22.55;49.33;101125.66;5061608;28;45561;-47
2021/07/10 03:21:19;;;;;;;;;10.00;10.00;;;;;22.52;49.08;101120.44;5061801;28;45395;-47
2021/07/10 03:23:44;;;;;;;;;10.75;9.75;;;;;22.52;49.04;101116.88;5079843;28;45405;-47
2021/07/10 03:26:10;;;;;;;;;11.00;10.00;;;;;22.51;49.68;101117.84;5061720;28;45675;-49
2021/07/10 03:28:35;;;;;;;;;11.00;11.00;;;;;22.49;49.79;101117.09;5081815;27;45331;-46
2021/07/10 03:31:01;;;;;;;;;10.00;10.00;;;;;22.46;49.63;101110.00;5082668;27;47161;-50
2021/07/10 03:33:26;;;;;;;;;12.00;9.75;;;;;22.43;49.53;101112.06;5076476;27;45340;-50
2021/07/10 03:35:52;;;;;;;;;11.75;11.25;;;;;22.41;49.34;101114.88;5079368;28;45447;-47
2021/07/10 03:38:17;;;;;;;;;13.00;13.00;;;;;22.38;49.47;101112.38;5061410;28;45817;-50
2021/07/10 03:40:44;;;;;;;;;12.00;12.00;;;;;22.37;49.46;101107.06;5079542;27;48139;-51
2021/07/10 03:43:09;;;;;;;;;8.25;8.25;;;;;22.36;49.89;101114.31;5079978;27;45424;-49
2021/07/10 03:45:35;;;;;;;;;10.75;10.75;;;;;22.35;49.88;101108.97;5060657;28;45263;-47
2021/07/10 03:48:00;;;;;;;;;10.50;10.25;;;;;22.36;49.74;101114.31;5079766;27;45279;-49
2021/07/10 03:50:27;;;;;;;;;12.00;11.00;;;;;22.35;50.03;101114.38;5079156;28;47641;-50
2021/07/10 03:52:52;;;;;;;;;14.50;12.50;;;;;22.35;49.74;101117.06;5058014;28;45418;-51
2021/07/10 03:55:18;;;;;;;;;9.25;8.50;;;;;22.33;49.96;101107.22;5076258;27;45465;-50
2021/07/10 03:57:44;;;;;;;;;10.00;9.00;;;;;22.35;49.71;101112.53;5061748;28;45414;-48
2021/07/10 04:00:16;;;;;;;;;8.00;8.00;;;;;22.35;50.05;101112.53;5079386;27;45479;-46
2021/07/10 04:02:42;;;;;;;;;11.75;11.75;;;;;22.36;49.90;101118.81;5068991;27;45478;-48
2021/07/10 04:05:10;;;;;;;;;11.50;11.50;;;;;22.37;49.95;101113.34;5061325;28;45547;-52
2021/07/10 04:07:37;;;;;;;;;11.25;10.00;;;;;22.36;50.09;101105.28;5079707;27;45515;-51
2021/07/10 04:10:05;;;;;;;;;11.25;11.25;;;;;22.35;49.74;101109.84;5079120;27;46625;-52
2021/07/10 04:12:31;;;;;;;;;10.50;9.75;;;;;22.33;50.40;101107.22;5079522;27;45396;-48
2021/07/10 04:15:00;;;;;;;;;9.50;9.50;;;;;22.33;50.41;101098.25;5079286;27;45505;-51
2021/07/10 04:17:30;;;;;;;;;11.75;11.75;;;;;22.33;50.27;101095.56;5061668;28;45668;-49
2021/07/10 04:19:56;;;;;;;;;11.50;11.50;;;;;22.31;50.07;101094.78;5050474;28;47443;-51
2021/07/10 04:22:23;;;;;;;;;12.50;11.50;;;;;22.31;50.53;101098.34;5079232;27;45760;-47
2021/07/10 04:24:49;;;;;;;;;7.00;7.00;;;;;22.32;50.29;101099.22;5068928;27;45712;-47
2021/07/10 04:27:15;;;;;;;;;10.00;10.00;;;;;22.33;50.64;101103.66;5079613;27;45651;-51
2021/07/10 04:29:44;;;;;;;;;11.25;11.25;;;;;22.34;50.23;101110.81;5079976;27;45683;-46
2021/07/10 04:32:12;;;;;;;;;12.00;10.75;;;;;22.35;50.03;101098.16;5061617;27;45979;-49
2021/07/10 04:34:38;;;;;;;;;9.50;9.50;;;;;22.33;50.32;101099.13;5060667;28;45594;-49
2021/07/10 04:37:04;;;;;;;;;11.00;11.00;;;;;22.34;50.49;101097.28;5060796;27;45455;-48
2021/07/10 04:39:29;;;;;;;;;9.25;9.00;;;;;22.35;50.46;101101.72;5040505;28;47323;-51
2021/07/10 04:41:55;;;;;;;;;8.50;8.50;;;;;22.34;50.13;101094.56;5057307;27;46372;-48
2021/07/10 04:44:20;;;;;;;;;10.50;9.75;;;;;22.35;50.73;101108.97;5079031;27;45234;-49
2021/07/10 04:46:46;;;;;;;;;11.50;10.75;;;;;22.35;50.93;101108.97;5078754;27;45487;-51
2021/07/10 04:49:11;;;;;;;;;10.25;10.25;;;;;22.36;50.58;101103.50;5079221;27;47726;-47
2021/07/10 04:51:37;;;;;;;;;12.50;12.50;;;;;22.38;50.32;101109.66;5078771;27;45389;-48
2021/07/10 04:54:02;;;;;;;;;9.00;9.00;;;;;22.38;50.46;101106.09;5078875;27;45220;-47
2021/07/10 04:56:28;;;;;;;;;9.75;9.75;;;;;22.38;50.98;101116.91;5078996;28;45291;-48
2021/07/10 04:58:54;;;;;;;;;9.50;9.50;;;;;22.37;50.72;101110.63;5078141;27;48315;-46
2021/07/10 05:01:19;;;;;;;;;12.50;11.25;;;;;22.37;50.50;101107.06;5075687;27;45576;-48
2021/07/10 05:03:44;;;;;;;;;10.25;10.25;;;;;22.38;50.92;101108.78;5059603;28;45700;-52
2021/07/10 05:06:10;;;;;;;;;13.75;13.50;;;;;22.38;50.93;101116.91;5057632;28;45694;-48
2021/07/10 05:08:36;;;;;;;;;10.00;10.00;;;;;22.38;50.98;101117.78;5038849;28;47263;-49
2021/07/10 05:11:02;;;;;;;;;11.00;11.00;;;;;22.38;50.75;101119.59;5040307;28;45610;-49
2021/07/10 05:13:28;;;;;;;;;8.00;8.00;;;;;22.40;51.20;101115.84;5056980;28;45397;-48
2021/07/10 05:15:53;;;;;;;;;11.75;11.50;;;;;22.42;51.09;101108.47;5058363;28;45307;-51
2021/07/10 05:18:19;;;;;;;;;9.00;8.50;;;;;22.44;51.18;101120.06;5058182;28;48224;-51
2021/07/10 05:20:46;;;;;;;;;11.25;10.50;;;;;22.45;50.96;101120.94;5023392;28;45352;-50
2021/07/10 05:23:12;;;;;;;;;11.50;10.75;;;;;22.46;50.98;101123.53;5040280;28;45375;-50
2021/07/10 05:25:37;;;;;;;;;9.00;8.75;;;;;22.46;50.88;101115.41;5040314;28;46089;-49
2021/07/10 05:28:03;;;;;;;;;12.25;11.75;;;;;22.46;51.02;101119.97;5058009;28;45384;-48
2021/07/10 05:30:29;;;;;;;;;10.75;10.75;;;;;22.46;51.00;101112.72;5058755;28;45716;-50
2021/07/10 05:32:54;;;;;;;;;10.00;9.00;;;;;22.47;50.94;101114.44;5062081;28;45505;-49
2021/07/10 05:35:22;;;;;;;;;11.50;10.25;;;;;22.48;51.25;101113.47;5061946;28;45589;-46
2021/07/10 05:37:49;;;;;;;;;9.75;9.75;;;;;22.49;51.15;101114.38;5065284;28;47267;-48
2021/07/10 05:40:16;;;;;;;;;13.50;11.50;;;;;22.51;50.99;101120.56;5063821;28;45375;-50
2021/07/10 05:42:41;;;;;;;;;12.50;12.50;;;;;22.50;51.23;101111.56;5081531;28;45732;-51
2021/07/10 05:45:08;;;;;;;;;10.00;9.50;;;;;22.50;51.38;101111.56;5063716;28;45490;-50
2021/07/10 05:47:34;;;;;;;;;13.00;12.50;;;;;22.51;51.47;101107.91;5076285;27;47124;-48
2021/07/10 05:50:00;;;;;;;;;11.75;11.75;;;;;22.52;51.00;101109.63;5062975;28;45438;-50
2021/07/10 05:52:26;;;;;;;;;10.25;10.00;;;;;22.53;50.97;101100.53;5081836;27;45368;-48
2021/07/10 05:54:52;;;;;;;;;9.75;9.75;;;;;22.54;51.44;101104.13;5081477;27;45429;-48
2021/07/10 05:57:17;;;;;;;;;10.00;8.50;;;;;22.55;51.18;101098.59;5081357;27;48145;-50
2021/07/10 05:59:43;;;;;;;;;9.25;9.25;;;;;22.58;51.68;101089.41;5063149;28;45584;-47
2021/07/10 06:02:08;;;;;;;;;10.25;8.50;;;;;22.58;51.16;101092.97;5063358;28;45447;-46
2021/07/10 06:04:35;;;;;;;;;9.50;9.50;;;;;22.58;51.67;101092.97;5063049;28;45549;-48
2021/07/10 06:07:00;;;;;;;;;10.75;8.75;;;;;22.59;51.66;101096.56;5081533;27;48364;-49
2021/07/10 06:09:26;;;;;;;;;7.00;7.00;;;;;22.63;51.21;101094.53;5081307;27;45360;-49
2021/07/10 06:11:53;;;;;;;;;8.75;7.75;;;;;22.66;51.46;101092.50;5081759;27;45374;-51
2021/07/10 06:14:18;;;;;;;;;11.25;10.50;;;;;22.73;51.48;101092.94;5081814;27;45950;-51
2021/07/10 06:16:44;;;;;;;;;8.75;8.75;;;;;22.80;51.02;101088.88;5059723;28;46249;-47
2021/07/10 06:19:10;;;;;;;;;11.50;8.25;;;;;22.87;51.35;101088.41;5078539;27;45647;-49
2021/07/10 06:21:35;;;;;;;;;12.25;11.00;;;;;22.95;50.75;101087.00;5071340;27;45419;-50
2021/07/10 06:24:01;;;;;;;;;7.75;7.75;;;;;23.03;51.07;101084.66;5065819;27;46044;-47
2021/07/10 06:26:26;;;;;;;;;7.50;7.50;;;;;23.09;50.71;101085.09;5081524;27;47116;-48
2021/07/10 06:28:53;;;;;;;;;7.25;7.25;;;;;23.15;50.56;101073.84;5060079;27;45831;-49
2021/07/10 06:31:18;;;;;;;;;7.75;7.75;;;;;23.24;50.52;101085.00;5062727;28;45473;-49
2021/07/10 06:33:44;;;;;;;;;7.00;7.00;;;;;23.29;50.36;101080.16;5081186;27;45593;-46
2021/07/10 06:36:10;;;;;;;;;5.50;5.50;;;;;23.33;49.83;101079.81;5062999;28;46437;-50
2021/07/10 06:38:36;;;;;;;;;8.00;7.75;;;;;23.34;49.78;101080.69;5061176;27;45540;-48
2021/07/10 06:41:02;;;;;;;;;7.75;7.50;;;;;23.34;49.23;101077.97;5080702;27;45315;-49
2021/07/10 06:43:27;;;;;;;;;8.25;8.25;;;;;23.35;49.24;101077.00;5090369;27;45540;-46
2021/07/10 06:45:53;;;;;;;;;7.00;7.00;;;;;23.35;49.19;101080.59;5070422;28;46187;-49
2021/07/10 06:48:18;;;;;;;;;6.00;6.00;;;;;23.36;48.50;101071.47;5081185;27;45445;-48
2021/07/10 06:50:44;;;;;;;;;4.75;4.75;;;;;23.38;48.91;101072.28;5062253;28;45703;-51
2021/07/10 06:53:09;;;;;;;;;6.00;6.00;;;;;23.39;48.33;101073.13;5080912;27;45463;-47
2021/07/10 06:55:35;;;;;;;;;5.00;5.00;;;;;23.35;47.70;101061.63;5063057;28;46832;-51
2021/07/10 06:58:01;;;;;;;;;5.50;5.25;;;;;23.33;47.47;101065.41;5062947;27;45307;-47
2021/07/10 07:00:26;;;;;;;;;2.50;2.50;;;;;23.31;47.09;101064.66;5062892;28;45371;-47
2021/07/10 07:02:52;;;;;;;;;4.25;3.00;;;;;23.29;46.94;101062.06;5080633;27;45706;-48
2021/07/10 07:05:18;;;;;;;;;3.25;3.00;;;;;23.30;46.50;101061.09;5080264;27;47996;-49
2021/07/10 07:07:43;;;;;;;;;2.00;2.00;;;;;23.32;46.11;101058.28;5062367;28;45309;-50
2021/07/10 07:10:11;;;;;;;;;2.67;2.67;;;;;23.35;45.90;101067.03;5042860;28;45435;-47
2021/07/10 07:12:37;;;;;;;;;2.50;2.50;;;;;23.40;46.24;101061.31;5056134;27;45502;-53
2021/07/10 07:15:05;;;;;;;;;2.75;2.75;;;;;23.48;45.38;101064.34;5080825;27;47170;-49
2021/07/10 07:17:31;;;;;;;;;4.00;3.00;;;;;23.58;45.46;101061.91;5062061;28;45399;-52
2021/07/10 07:19:56;;;;;;;;;4.00;4.00;;;;;23.67;45.43;101051.28;5080644;27;45357;-51
2021/07/10 07:22:22;;;;;;;;;4.00;4.00;;;;;23.81;45.32;101057.56;5059807;28;45585;-51
2021/07/10 07:24:47;;;;;;;;;4.00;4.00;;;;;23.92;45.18;101055.81;5080187;27;47287;-51
2021/07/10 07:27:13;;;;;;;;;4.25;4.25;;;;;24.08;45.51;101052.84;5080530;27;45781;-51
2021/07/10 07:29:38;;;;;;;;;4.75;4.75;;;;;24.20;44.91;101056.50;5062655;28;45434;-50
2021/07/10 07:32:05;;;;;;;;;4.00;4.00;;;;;24.26;44.36;101058.75;5080545;27;45426;-49
2021/07/10 07:34:30;;;;;;;;;4.00;4.00;;;;;24.25;43.93;101048.88;5080580;27;48020;-48
2021/07/10 07:36:56;;;;;;;;;3.50;3.50;;;;;24.23;43.72;101050.84;5062020;28;45360;-49
2021/07/10 07:39:21;;;;;;;;;3.00;3.00;;;;;24.20;43.55;101040.25;5079670;27;45343;-48
2021/07/10 07:41:49;;;;;;;;;2.50;2.50;;;;;24.18;43.70;101047.63;5062129;28;45591;-50
2021/07/10 07:44:15;;;;;;;;;3.25;3.25;;;;;24.18;43.98;101043.06;5075368;27;45558;-50
2021/07/10 07:46:40;;;;;;;;;3.75;3.75;;;;;24.20;43.78;101038.41;5083600;27;45412;-50
2021/07/10 07:49:07;;;;;;;;;4.50;4.50;;;;;24.19;43.82;101038.50;5079991;27;45386;-47
2021/07/10 07:51:33;;;;;;;;;4.00;3.25;;;;;24.18;43.68;101039.50;5080492;27;45404;-49
2021/07/10 07:53:58;;;;;;;;;3.50;3.50;;;;;24.17;43.90;101043.19;5078962;27;47032;-48
2021/07/10 07:56:25;;;;;;;;;4.00;4.00;;;;;24.17;43.81;101037.75;5061689;27;45406;-51
2021/07/10 07:58:51;;;;;;;;;3.50;3.50;;;;;24.17;43.79;101033.22;5062240;28;45524;-46
2021/07/10 08:01:16;;;;;;;;;5.00;5.00;;;;;24.16;44.42;101028.75;5080474;27;45500;-45
2021/07/10 08:03:42;;;;;;;;;7.25;7.25;;;;;24.13;44.37;101039.81;5032029;28;45341;-53
2021/07/10 08:06:08;;;;;;;;;5.50;5.50;;;;;24.09;44.93;101041.03;5073636;28;45540;-51
2021/07/10 08:08:36;;;;;;;;;6.50;6.50;;;;;24.04;44.91;101041.38;5080572;28;45310;-51
2021/07/10 08:11:04;;;;;;;;;1.50;1.25;;;;;24.02;44.59;101034.34;5080095;27;45526;-48
2021/07/10 08:13:31;;;;;;;;;3.25;3.00;;;;;24.01;43.84;101036.19;5080080;27;46952;-48
2021/07/10 08:15:57;;;;;;;;;3.00;3.00;;;;;24.04;43.90;101040.50;5080096;28;45479;-49
2021/07/10 08:18:22;;;;;;;;;2.50;1.50;;;;;24.05;43.64;101029.53;5080055;28;45497;-48
2021/07/10 08:20:48;;;;;;;;;3.00;3.00;;;;;24.11;43.27;101035.47;5061404;28;45311;-49
2021/07/10 08:23:13;;;;;;;;;2.25;2.25;;;;;24.15;43.26;101037.00;5079505;28;48020;-51
2021/07/10 08:25:39;;;;;;;;;2.67;2.67;;;;;24.18;43.46;101036.78;5079669;28;45235;-51
2021/07/10 08:28:05;;;;;;;;;2.33;2.33;;;;;24.20;42.84;101032.09;5071421;27;45444;-52
2021/07/10 08:30:31;;;;;;;;;2.75;1.50;;;;;24.20;42.58;101032.97;5042739;28;45540;-49
2021/07/10 08:32:56;;;;;;;;;2.00;2.00;;;;;24.18;42.59;101034.94;5078828;27;47444;-46
2021/07/10 08:35:22;;;;;;;;;1.75;1.75;;;;;24.22;42.35;101031.00;5061458;27;46550;-47
2021/07/10 08:37:47;;;;;;;;;3.33;2.33;;;;;24.24;42.55;101028.19;5078856;27;45419;-48
2021/07/10 08:40:14;;;;;;;;;2.33;2.33;;;;;24.28;42.24;101021.56;5059975;28;45720;-47
2021/07/10 08:42:40;;;;;;;;;4.00;3.00;;;;;24.29;42.09;101026.88;5060602;28;45520;-46
2021/07/10 08:45:09;;;;;;;;;3.67;2.67;;;;;24.31;41.83;101024.09;5077972;27;45778;-49
2021/07/10 08:47:36;;;;;;;;;2.50;2.50;;;;;24.30;41.87;101027.78;5054055;28;45704;-50
2021/07/10 08:50:07;;;;;;;;;2.67;2.67;;;;;24.28;41.89;101024.28;5075537;27;45803;-50
2021/07/10 08:52:36;;;;;;;;;3.00;3.00;;;;;24.23;41.97;101029.16;5078782;28;47119;-48
2021/07/10 08:55:04;;;;;;;;;4.67;3.00;;;;;24.18;42.11;101032.22;5078937;27;45406;-50
2021/07/10 08:57:34;;;;;;;;;3.00;3.00;;;;;24.14;42.15;101030.72;5079183;27;45381;-50
2021/07/10 08:59:59;;;;;;;;;2.33;2.33;;;;;24.12;42.33;101031.78;5079578;27;45302;-48
2021/07/10 09:02:25;;;;;;;;;2.00;2.00;;;;;24.08;41.87;101039.28;5057625;28;48072;-48
2021/07/10 09:04:51;;;;;;;;;2.00;2.00;;;;;24.05;41.96;101034.97;5076383;27;45401;-49
2021/07/10 09:07:16;;;;;;;;;1.33;1.33;;;;;24.03;41.91;101034.22;5083178;27;45271;-48
2021/07/10 09:09:44;;;;;;;;;2.33;2.33;;;;;24.01;41.74;101036.19;5064492;27;46246;-47
2021/07/10 09:12:12;;;;;;;;;1.00;1.00;;;;;24.02;41.74;101040.63;5047816;28;47390;-47
2021/07/10 09:14:37;;;;;;;;;2.00;2.00;;;;;24.01;41.56;101046.13;5082543;27;46108;-47
2021/07/10 09:17:17;;;;;;;;;1.75;1.50;;;;;23.98;41.43;101043.66;5061107;28;45319;-51
2021/07/10 09:19:43;;;;;;;;;1.75;1.75;;;;;23.96;41.44;101049.19;5063724;28;45480;-49
2021/07/10 09:22:09;;;;;;;;;3.00;3.00;;;;;23.93;41.69;101052.13;5082461;27;46826;-50
2021/07/10 09:24:38;;;;;;;;;2.50;2.50;;;;;23.86;41.97;101042.69;5063740;28;45390;-49
2021/07/10 09:27:09;;;;;;;;;2.50;2.50;;;;;23.80;41.84;101055.81;5083247;27;45319;-50
2021/07/10 09:29:43;;;;;;;;;2.50;2.50;;;;;23.72;42.10;101061.78;5083356;27;45392;-50
2021/07/10 09:32:11;;;;;;;;;2.50;2.50;;;;;23.64;42.75;101058.78;5081809;27;47021;-47
2021/07/10 09:34:43;;;;;;;;;3.50;3.50;;;;;23.56;43.44;101051.13;5053254;27;45821;-52
2021/07/10 09:37:20;;;;;;;;;4.00;4.00;;;;;23.50;43.42;101051.56;5068643;27;45512;-51
2021/07/10 09:39:58;;;;;;;;;2.50;2.50;;;;;23.43;43.30;101042.16;5064949;28;45495;-52
2021/07/10 09:42:48;;;;;;;;;3.00;3.00;;;;;23.36;43.96;101033.56;5063974;28;45295;-51
2021/07/10 09:45:25;;;;;;;;;3.00;2.00;;;;;23.32;44.19;101026.63;5067327;27;45492;-48
2021/07/10 09:47:50;;;;;;;;;23.50;21.25;;;;;23.30;44.77;101034.00;5082032;27;45552;-51
2021/07/10 09:50:25;;;;;;;;;7.00;6.75;;;;;23.31;45.13;101026.75;5065827;27;45393;-49
2021/07/10 09:52:51;;;;;;;;;1.00;1.00;;;;;23.32;45.11;101014.94;5081756;27;47702;-49
2021/07/10 09:55:17;;;;;;;;;3.00;1.75;;;;;23.31;44.69;101015.91;5081702;27;45440;-51
2021/07/10 09:57:44;;;;;;;;;4.25;4.25;;;;;23.32;45.66;101009.53;5063933;28;45390;-51
2021/07/10 10:00:13;;;;;;;;;4.00;4.00;;;;;23.35;46.21;101022.84;5081793;27;45247;-48
2021/07/10 10:02:48;;;;;;;;;4.25;4.00;;;;;23.41;46.72;101023.28;5081528;27;47333;-49
2021/07/10 10:05:19;;;;;;;;;6.00;5.50;;;;;23.48;46.97;101018.28;5081117;27;45736;-50
2021/07/10 10:07:47;;;;;;;;;4.00;4.00;;;;;23.57;46.91;101022.19;5064283;27;45379;-47
2021/07/10 10:10:26;;;;;;;;;4.00;4.00;;;;;23.60;46.61;101019.31;5069474;27;45508;-50
2021/07/10 10:13:09;;;;;;;;;2.25;2.25;;;;;23.60;46.04;101001.19;5081455;27;47206;-47
2021/07/10 10:15:39;;;;;;;;;3.75;3.75;;;;;23.58;46.05;100997.75;5081203;27;45824;-51
2021/07/10 10:18:06;;;;;;;;;5.00;5.00;;;;;23.57;46.88;100992.41;5080885;27;45293;-49
2021/07/10 10:20:33;;;;;;;;;6.00;5.50;;;;;23.62;46.58;101001.09;5081352;27;45236;-50
2021/07/10 10:23:00;;;;;;;;;4.25;4.25;;;;;23.65;46.12;101018.00;5080670;27;46516;-47
2021/07/10 10:25:26;;;;;;;;;3.00;3.00;;;;;23.66;46.14;101021.59;5081564;27;45656;-50
2021/07/10 10:27:53;;;;;;;;;5.75;4.00;;;;;23.66;46.27;101008.91;5081275;27;45428;-49
2021/07/10 10:30:20;;;;;;;;;3.75;3.75;;;;;23.66;46.70;101008.03;5062521;28;45511;-48
2021/07/10 10:32:46;;;;;;;;;4.67;3.67;;;;;23.66;46.69;101008.91;5082590;27;46168;-51
2021/07/10 10:35:14;;;;;;;;;6.25;3.50;;;;;23.67;46.64;101020.59;5081190;27;45853;-52
2021/07/10 10:37:42;;;;;;;;;4.25;4.25;;;;;23.66;46.26;101016.16;5080414;27;45513;-47
2021/07/10 10:40:17;;;;;;;;;3.67;3.67;;;;;23.64;46.21;101013.56;5081984;27;45386;-49
2021/07/10 10:42:45;;;;;;;;;4.00;4.00;;;;;23.65;46.36;101014.44;5080823;27;47543;-52
2021/07/10 10:45:11;;;;;;;;;2.50;2.50;;;;;23.65;45.88;101007.19;5063357;28;45263;-51
2021/07/10 10:47:45;;;;;;;;;3.00;3.00;;;;;23.68;46.07;100997.94;5077799;27;45361;-48
2021/07/10 10:50:26;;;;;;;;;3.00;3.00;;;;;23.71;45.82;100998.59;5064550;27;45303;-51
2021/07/10 10:52:53;;;;;;;;;3.00;3.00;;;;;23.80;45.83;100997.06;5088060;27;48330;-49
2021/07/10 10:55:28;;;;;;;;;3.67;3.67;;;;;23.90;45.50;100998.13;5062831;28;45358;-46
2021/07/10 10:58:20;;;;;;;;;3.00;3.00;;;;;24.04;45.74;100999.84;5081134;27;45477;-48
2021/07/10 11:00:58;;;;;;;;;4.50;3.50;;;;;24.13;45.16;101007.28;5072450;27;45480;-47
2021/07/10 11:03:38;;;;;;;;;3.25;3.25;;;;;24.18;45.25;100988.84;5080731;27;48341;-49
2021/07/10 11:06:05;;;;;;;;;3.67;3.00;;;;;24.22;45.08;100990.31;5080886;27;45357;-49
2021/07/10 11:08:51;;;;;;;;;2.75;2.75;;;;;24.23;45.06;100993.91;5080866;27;45474;-51
2021/07/10 11:11:17;;;;;;;;;5.50;5.50;;;;;24.23;44.98;100986.63;5080667;27;45462;-49
2021/07/10 11:13:56;;;;;;;;;4.75;3.25;;;;;24.27;44.89;100998.16;5080655;28;47401;-50
2021/07/10 11:16:22;;;;;;;;;2.50;2.50;;;;;24.28;44.75;100987.19;5062299;28;45366;-47
2021/07/10 11:19:05;;;;;;;;;4.25;4.00;;;;;24.33;44.75;100990.44;5080537;27;45377;-48